EDC weather

Austin Executive Airport
Austin, Texas, United States

Public forecast

Using degrees Fahrenheit for public forecast. Weather courtesy of forecast.io.

METAR (pilot weather report)

Retrieved 2019/08/25 11:35 UTC (2 minutes ago):

KEDC 251135Z AUTO 16003KT 1/4SM FG OVC002 24/24 A2988 RMK AO2

TAF (pilot weather forecast)

Closest forecast is Austin Bergstrom International Airport, 13.3 nm (24.7 km) SSW. Retrieved 2019/08/25 06:22 UTC (5 hours ago):

TAF KAUS 250520Z 2506/2612 22003KT P6SM FEW080 BKN150 FM251000 VRB03KT P6SM SCT015 BKN200 FM251800 18007KT P6SM SCT070 FM260800 18005KT P6SM SCT015 BKN150